createdAt,value
2022-08-10T00:00:32.200Z,2.30
2022-08-10T00:03:01.270Z,2.80
2022-08-10T00:05:28.211Z,2.77
2022-08-10T00:08:10.611Z,2.60
2022-08-10T00:10:38.435Z,2.63
2022-08-10T00:13:05.206Z,2.67
2022-08-10T00:15:52.023Z,2.87
2022-08-10T00:18:34.953Z,2.50
2022-08-10T00:21:03.128Z,2.63
2022-08-10T00:23:30.132Z,2.67
2022-08-10T00:25:56.856Z,3.20
2022-08-10T00:28:23.850Z,3.17
2022-08-10T00:30:50.813Z,2.93
2022-08-10T00:33:17.778Z,2.77
2022-08-10T00:35:45.081Z,2.70
2022-08-10T00:38:12.056Z,2.60
2022-08-10T00:40:39.016Z,2.53
2022-08-10T00:43:06.218Z,2.90
2022-08-10T00:45:33.247Z,3.13
2022-08-10T00:47:59.996Z,2.70
2022-08-10T00:50:27.042Z,3.00
2022-08-10T00:52:54.385Z,2.70
2022-08-10T00:55:21.333Z,3.23
2022-08-10T00:57:55.225Z,3.07
2022-08-10T01:00:22.455Z,3.50
2022-08-10T01:02:49.454Z,3.40
2022-08-10T01:05:16.381Z,3.47
2022-08-10T01:08:10.140Z,3.20
2022-08-10T01:10:49.724Z,3.27
2022-08-10T01:13:21.543Z,3.17
2022-08-10T01:16:00.657Z,3.30
2022-08-10T01:18:39.724Z,3.27
2022-08-10T01:21:56.806Z,3.27
2022-08-10T01:24:52.594Z,3.07
2022-08-10T01:27:27.193Z,3.37
2022-08-10T01:30:00.046Z,3.63
2022-08-10T01:32:37.330Z,3.53
2022-08-10T01:35:11.534Z,3.40
2022-08-10T01:37:43.659Z,3.30
2022-08-10T01:40:22.674Z,3.40
2022-08-10T01:42:51.138Z,3.30
2022-08-10T01:45:20.931Z,3.97
2022-08-10T01:48:16.588Z,3.40
2022-08-10T01:50:59.969Z,3.80
2022-08-10T01:53:40.834Z,3.60
2022-08-10T01:56:10.068Z,3.53
2022-08-10T01:58:37.991Z,3.23
2022-08-10T02:01:09.194Z,3.80
2022-08-10T02:04:05.133Z,3.40
2022-08-10T02:06:26.348Z,3.57
2022-08-10T02:08:57.027Z,3.30
2022-08-10T02:12:06.789Z,4.13
2022-08-10T02:14:23.306Z,4.57
2022-08-10T02:16:51.758Z,3.43
2022-08-10T02:19:22.471Z,3.80
2022-08-10T02:22:35.042Z,3.50
2022-08-10T02:24:42.045Z,3.63
2022-08-10T02:27:09.513Z,3.70
2022-08-10T02:29:37.702Z,3.83
2022-08-10T02:32:10.850Z,4.07
2022-08-10T02:34:39.001Z,3.87
2022-08-10T02:37:10.830Z,3.73
2022-08-10T02:39:38.182Z,3.90
2022-08-10T02:45:12.668Z,4.23
2022-08-10T02:45:26.271Z,3.97
2022-08-10T02:47:58.750Z,4.07
2022-08-10T02:50:28.111Z,3.83
2022-08-10T02:53:00.398Z,3.83
2022-08-10T02:55:33.219Z,3.87
2022-08-10T02:58:16.879Z,4.27
2022-08-10T03:00:49.467Z,3.97
2022-08-10T03:03:19.549Z,4.17
2022-08-10T03:05:49.239Z,4.40
2022-08-10T03:08:21.075Z,4.37
2022-08-10T03:10:49.307Z,4.50
2022-08-10T03:13:17.696Z,4.67
2022-08-10T03:15:45.795Z,4.43
2022-08-10T03:18:13.570Z,4.30
2022-08-10T03:20:42.938Z,4.30
2022-08-10T03:23:12.565Z,4.40
2022-08-10T03:25:40.170Z,3.70
2022-08-10T03:28:08.129Z,4.07
2022-08-10T03:30:35.564Z,4.73
2022-08-10T03:33:04.535Z,4.53
2022-08-10T03:35:31.651Z,4.77
2022-08-10T03:38:00.180Z,4.13
2022-08-10T03:40:45.362Z,4.60
2022-08-10T03:43:17.115Z,4.50
2022-08-10T03:45:54.289Z,4.13
2022-08-10T03:48:23.481Z,4.43
2022-08-10T03:50:52.756Z,4.60
2022-08-10T03:54:03.587Z,4.73
2022-08-10T03:56:29.751Z,5.33
2022-08-10T03:58:55.551Z,4.63
2022-08-10T04:02:42.105Z,4.73
2022-08-10T04:04:12.482Z,4.77
2022-08-10T04:06:41.567Z,5.80
2022-08-10T04:09:09.765Z,5.07
2022-08-10T04:11:36.941Z,4.97
2022-08-10T04:14:07.604Z,5.17
2022-08-10T04:16:54.609Z,5.63
2022-08-10T04:19:22.374Z,5.20
2022-08-10T04:21:55.803Z,4.67
2022-08-10T04:24:29.594Z,5.10
2022-08-10T04:26:57.121Z,5.90
2022-08-10T04:29:24.415Z,5.87
2022-08-10T04:31:52.921Z,5.00
2022-08-10T04:34:20.435Z,4.90
2022-08-10T04:36:49.389Z,4.83
2022-08-10T04:39:16.718Z,4.90
2022-08-10T04:41:47.277Z,5.40
2022-08-10T04:44:14.444Z,5.40
2022-08-10T04:46:55.841Z,4.70
2022-08-10T04:49:52.140Z,4.87
2022-08-10T04:52:12.012Z,4.77
2022-08-10T04:54:39.321Z,4.77
2022-08-10T04:57:07.048Z,4.93
2022-08-10T04:59:34.086Z,4.17
2022-08-10T05:02:28.566Z,3.50
2022-08-10T05:04:48.046Z,3.77
2022-08-10T05:07:16.959Z,4.13
2022-08-10T05:10:00.987Z,3.70
2022-08-10T05:12:34.623Z,3.67
2022-08-10T05:15:07.264Z,3.20
2022-08-10T05:17:34.619Z,3.50
2022-08-10T05:20:06.012Z,2.97
2022-08-10T05:22:36.063Z,2.73
2022-08-10T05:25:03.779Z,3.20
2022-08-10T05:27:30.482Z,3.57
2022-08-10T05:30:01.438Z,3.63
2022-08-10T05:32:29.737Z,3.60
2022-08-10T05:34:57.124Z,3.60
2022-08-10T05:38:12.928Z,3.77
2022-08-10T05:40:12.626Z,4.27
2022-08-10T05:42:41.384Z,3.60
2022-08-10T05:45:18.657Z,3.83
2022-08-10T05:48:41.801Z,3.40
2022-08-10T05:50:33.964Z,3.30
2022-08-10T05:53:56.742Z,3.37
2022-08-10T05:55:48.011Z,4.17
2022-08-10T05:58:15.081Z,3.70
2022-08-10T06:00:50.252Z,4.20
2022-08-10T06:03:24.065Z,3.87
2022-08-10T06:05:54.857Z,4.13
2022-08-10T06:08:24.935Z,4.03
2022-08-10T06:12:23.260Z,3.23
2022-08-10T06:14:12.839Z,3.70
2022-08-10T06:16:42.616Z,3.70
2022-08-10T06:19:10.782Z,3.70
2022-08-10T06:21:38.976Z,4.83
2022-08-10T06:24:25.599Z,4.03
2022-08-10T06:26:57.398Z,3.87
2022-08-10T06:29:24.587Z,3.70
2022-08-10T06:31:54.395Z,4.00
2022-08-10T06:34:25.678Z,3.90
2022-08-10T06:36:53.588Z,3.70
2022-08-10T06:39:37.567Z,4.07
2022-08-10T06:42:17.592Z,4.23
2022-08-10T06:44:52.971Z,3.93
2022-08-10T06:47:23.836Z,3.77
2022-08-10T06:49:54.150Z,3.83
2022-08-10T06:52:30.448Z,3.37
2022-08-10T06:54:59.078Z,3.50
2022-08-10T06:57:32.574Z,3.90
2022-08-10T07:00:02.700Z,3.50
2022-08-10T07:02:37.001Z,3.53
2022-08-10T07:05:06.504Z,3.10
2022-08-10T07:07:38.493Z,3.80
2022-08-10T07:10:06.786Z,3.27
2022-08-10T07:12:36.240Z,3.20
2022-08-10T07:15:04.644Z,3.63
2022-08-10T07:17:37.229Z,3.53
2022-08-10T07:20:08.881Z,3.33
2022-08-10T07:23:05.877Z,3.60
2022-08-10T07:25:27.943Z,3.43
2022-08-10T07:27:58.663Z,3.60
2022-08-10T07:30:30.101Z,3.23
2022-08-10T07:33:02.065Z,3.20
2022-08-10T07:35:41.706Z,2.87
2022-08-10T07:38:13.534Z,2.80
2022-08-10T07:40:41.926Z,2.57
2022-08-10T07:43:09.657Z,2.87
2022-08-10T07:45:38.730Z,2.67
2022-08-10T07:48:11.536Z,2.70
2022-08-10T07:50:40.725Z,2.70
2022-08-10T07:53:12.323Z,2.60
2022-08-10T07:56:04.784Z,2.73
2022-08-10T07:58:33.762Z,2.67
2022-08-10T08:01:01.468Z,2.63
2022-08-10T08:03:30.650Z,2.60
2022-08-10T08:06:05.430Z,2.93
2022-08-10T08:08:40.106Z,2.93
2022-08-10T08:11:08.851Z,2.60
2022-08-10T08:13:37.676Z,2.50
2022-08-10T08:16:20.730Z,2.23
2022-08-10T08:19:09.895Z,2.50
2022-08-10T08:24:05.948Z,2.40
2022-08-10T08:24:31.387Z,1.90
2022-08-10T08:27:01.772Z,2.03
2022-08-10T08:29:28.918Z,1.95
2022-08-10T08:32:02.128Z,2.00
2022-08-10T08:34:31.310Z,2.20
2022-08-10T08:37:00.097Z,2.00
2022-08-10T08:39:27.882Z,1.70
2022-08-10T08:42:11.774Z,1.58
2022-08-10T08:44:50.069Z,2.97
2022-08-10T08:48:03.654Z,2.15
2022-08-10T08:50:36.878Z,1.33
2022-08-10T08:53:22.205Z,1.65
2022-08-10T08:56:04.901Z,2.03
2022-08-10T08:58:48.775Z,2.03
2022-08-10T09:01:47.802Z,2.60
2022-08-10T09:04:39.860Z,2.33
2022-08-10T09:08:01.919Z,1.63
2022-08-10T09:10:38.735Z,1.40
2022-08-10T09:13:13.807Z,1.23
2022-08-10T09:15:48.571Z,1.45
2022-08-10T09:18:21.545Z,1.13
2022-08-10T09:20:53.375Z,1.02
2022-08-10T09:24:02.087Z,1.00
2022-08-10T09:26:20.226Z,1.27
2022-08-10T09:29:11.522Z,0.95
2022-08-10T09:31:55.884Z,1.35
2022-08-10T09:36:24.978Z,1.40
2022-08-10T09:37:39.337Z,1.38
2022-08-10T09:40:59.305Z,1.10
2022-08-10T09:43:26.922Z,1.30
2022-08-10T09:46:02.520Z,1.20
2022-08-10T09:48:35.072Z,1.20
2022-08-10T09:54:03.107Z,0.70
2022-08-10T09:56:40.708Z,1.00
2022-08-10T09:59:26.838Z,1.40
2022-08-10T10:02:10.177Z,1.50
2022-08-10T10:04:47.492Z,1.40
2022-08-10T10:07:23.045Z,0.90
2022-08-10T10:09:57.731Z,1.10
2022-08-10T10:12:32.852Z,1.10
2022-08-10T10:15:25.360Z,1.17
2022-08-10T10:18:31.243Z,0.88
2022-08-10T10:21:05.460Z,1.10
2022-08-10T10:23:51.393Z,1.20
2022-08-10T10:26:41.183Z,0.80
2022-08-10T10:29:44.874Z,1.27
2022-08-10T10:32:13.280Z,1.00
2022-08-10T10:34:47.661Z,0.90
2022-08-10T10:37:15.467Z,1.02
2022-08-10T10:39:44.569Z,1.10
2022-08-10T10:42:44.431Z,1.25
2022-08-10T10:45:19.143Z,0.93
2022-08-10T10:48:02.411Z,1.10
2022-08-10T10:50:38.558Z,1.10
2022-08-10T10:53:13.501Z,1.17
2022-08-10T10:56:13.706Z,1.10
2022-08-10T10:58:42.865Z,1.10
2022-08-10T11:01:18.697Z,1.10
2022-08-10T11:04:00.065Z,1.02
2022-08-10T11:06:40.957Z,0.90
2022-08-10T11:10:06.044Z,0.80
2022-08-10T11:12:10.453Z,0.85
2022-08-10T11:14:48.046Z,1.13
2022-08-10T11:17:26.808Z,1.13
2022-08-10T11:20:04.115Z,1.17
2022-08-10T11:22:36.929Z,1.10
2022-08-10T11:25:11.470Z,1.08
2022-08-10T11:27:48.202Z,0.93
2022-08-10T11:30:19.372Z,1.00
2022-08-10T11:32:57.632Z,1.20
2022-08-10T11:35:34.177Z,1.05
2022-08-10T11:38:34.159Z,0.90
2022-08-10T11:42:05.380Z,0.90
2022-08-10T11:44:03.415Z,1.10
2022-08-10T11:46:33.422Z,1.25
2022-08-10T11:49:08.252Z,0.82
2022-08-10T11:51:42.936Z,1.70
2022-08-10T11:54:18.321Z,1.40
2022-08-10T11:56:48.973Z,0.90
2022-08-10T11:59:35.796Z,0.90
2022-08-10T12:02:04.925Z,0.82
2022-08-10T12:04:34.132Z,1.23
2022-08-10T12:07:04.672Z,1.10
2022-08-10T12:10:07.710Z,0.90
2022-08-10T12:12:46.372Z,1.40
2022-08-10T12:15:19.414Z,1.02
2022-08-10T12:17:53.225Z,0.85
2022-08-10T12:20:28.055Z,1.05
2022-08-10T12:22:59.556Z,1.20
2022-08-10T12:25:55.482Z,0.95
2022-08-10T12:28:50.219Z,1.00
2022-08-10T12:31:17.725Z,0.95
2022-08-10T12:34:03.890Z,0.93
2022-08-10T12:36:39.440Z,1.10
2022-08-10T12:39:16.172Z,1.20
2022-08-10T12:42:04.501Z,1.30
2022-08-10T12:44:42.289Z,1.17
2022-08-10T12:47:17.917Z,1.33
2022-08-10T12:50:29.984Z,0.93
2022-08-10T12:52:49.825Z,1.10
2022-08-10T12:55:18.776Z,1.40
2022-08-10T12:57:52.719Z,1.27
2022-08-10T13:00:19.786Z,1.70
2022-08-10T13:02:49.175Z,1.20
2022-08-10T13:05:16.800Z,1.33
2022-08-10T13:08:25.541Z,1.77
2022-08-10T13:10:34.224Z,1.60
2022-08-10T13:13:02.388Z,1.55
2022-08-10T13:15:50.010Z,1.50
2022-08-10T13:18:24.254Z,1.67
2022-08-10T13:20:52.394Z,1.20
2022-08-10T13:23:23.271Z,1.40
2022-08-10T13:25:53.815Z,1.10
2022-08-10T13:28:36.105Z,1.70
2022-08-10T13:31:11.268Z,1.30
2022-08-10T13:34:40.260Z,1.20
2022-08-10T13:36:35.582Z,1.20
2022-08-10T13:39:04.034Z,1.30
2022-08-10T13:41:34.929Z,1.03
2022-08-10T13:44:01.974Z,1.23
2022-08-10T13:46:29.380Z,1.23
2022-08-10T13:48:59.841Z,1.27
2022-08-10T13:51:54.574Z,1.57
2022-08-10T13:54:24.368Z,1.43
2022-08-10T13:56:52.061Z,1.40
2022-08-10T13:59:19.854Z,1.30
2022-08-10T14:01:49.933Z,1.40
2022-08-10T14:04:18.212Z,1.50
2022-08-10T14:06:51.915Z,1.10
2022-08-10T14:09:26.899Z,1.80
2022-08-10T14:11:54.866Z,1.20
2022-08-10T14:14:23.881Z,1.33
2022-08-10T14:16:51.792Z,1.23
2022-08-10T14:19:22.191Z,1.40
2022-08-10T14:21:49.444Z,1.97
2022-08-10T14:24:21.273Z,1.40
2022-08-10T14:26:50.350Z,1.67
2022-08-10T14:29:20.137Z,1.60
2022-08-10T14:32:01.157Z,1.30
2022-08-10T14:36:14.882Z,1.40
2022-08-10T14:37:23.178Z,1.50
2022-08-10T14:39:56.209Z,1.53
2022-08-10T14:42:29.284Z,1.40
2022-08-10T14:45:07.509Z,1.70
2022-08-10T14:47:53.484Z,1.40
2022-08-10T14:50:32.218Z,1.30
2022-08-10T14:53:04.213Z,1.50
2022-08-10T14:55:59.107Z,1.20
2022-08-10T14:58:28.796Z,1.63
2022-08-10T15:00:56.595Z,1.40
2022-08-10T15:03:59.070Z,1.47
2022-08-10T15:06:19.908Z,1.40
2022-08-10T15:09:04.157Z,1.20
2022-08-10T15:12:12.974Z,1.10
2022-08-10T15:14:42.711Z,1.33
2022-08-10T15:17:13.133Z,1.93
2022-08-10T15:20:03.043Z,1.60
2022-08-10T15:22:49.941Z,1.40
2022-08-10T15:25:24.462Z,1.50
2022-08-10T15:27:56.599Z,1.70
2022-08-10T15:30:30.340Z,1.57
2022-08-10T15:33:21.725Z,1.60
2022-08-10T15:36:24.221Z,1.60
2022-08-10T15:38:58.943Z,1.40
2022-08-10T15:41:58.092Z,1.53
2022-08-10T15:44:38.428Z,1.43
2022-08-10T15:47:09.469Z,1.73
2022-08-10T15:49:45.177Z,1.43
2022-08-10T15:52:39.815Z,1.23
2022-08-10T15:55:43.068Z,1.50
2022-08-10T15:58:03.249Z,1.50
2022-08-10T16:00:33.125Z,1.97
2022-08-10T16:03:06.918Z,1.47
2022-08-10T16:06:02.108Z,1.43
2022-08-10T16:08:50.187Z,2.03
2022-08-10T16:11:37.411Z,1.80
2022-08-10T16:14:12.571Z,1.30
2022-08-10T16:16:41.101Z,1.77
2022-08-10T16:19:22.118Z,1.93
2022-08-10T16:21:59.820Z,1.50
2022-08-10T16:24:32.378Z,2.10
2022-08-10T16:27:03.264Z,1.70
2022-08-10T16:29:31.921Z,1.63
2022-08-10T16:32:23.049Z,1.50
2022-08-10T16:34:52.070Z,1.70
2022-08-10T16:37:19.214Z,1.60
2022-08-10T16:39:57.888Z,1.40
2022-08-10T16:42:29.355Z,1.77
2022-08-10T16:45:02.243Z,1.40
2022-08-10T16:47:30.535Z,1.47
2022-08-10T16:50:02.970Z,1.50
2022-08-10T16:52:32.666Z,1.80
2022-08-10T16:55:08.127Z,1.73
2022-08-10T16:57:53.401Z,1.27
2022-08-10T17:00:22.824Z,1.03
2022-08-10T17:02:52.397Z,1.50
2022-08-10T17:06:11.235Z,1.50
2022-08-10T17:08:11.373Z,1.50
2022-08-10T17:10:38.659Z,1.57
2022-08-10T17:13:08.131Z,1.50
2022-08-10T17:15:37.516Z,1.30
2022-08-10T17:18:06.725Z,1.77
2022-08-10T17:20:39.522Z,1.30
2022-08-10T17:23:10.000Z,1.50
2022-08-10T17:25:48.322Z,1.60
2022-08-10T17:28:34.811Z,1.33
2022-08-10T17:31:39.767Z,1.13
2022-08-10T17:34:01.187Z,1.70
2022-08-10T17:36:35.256Z,1.70
2022-08-10T17:39:03.373Z,1.50
2022-08-10T17:41:33.404Z,2.73
2022-08-10T17:44:03.419Z,2.00
2022-08-10T17:46:32.981Z,2.00
2022-08-10T17:49:05.785Z,1.90
2022-08-10T17:51:35.451Z,1.87
2022-08-10T17:54:08.253Z,2.20
2022-08-10T17:56:37.753Z,1.87
2022-08-10T17:59:17.456Z,1.70
2022-08-10T18:01:59.257Z,2.00
2022-08-10T18:04:31.986Z,1.70
2022-08-10T18:07:03.577Z,1.90
2022-08-10T18:09:35.181Z,1.73
2022-08-10T18:12:10.290Z,1.43
2022-08-10T18:14:46.865Z,1.63
2022-08-10T18:17:18.087Z,1.80
2022-08-10T18:19:56.406Z,2.20
2022-08-10T18:22:24.927Z,2.17
2022-08-10T18:24:53.832Z,1.83
2022-08-10T18:27:22.482Z,2.43
2022-08-10T18:30:11.365Z,2.30
2022-08-10T18:32:41.377Z,2.30
2022-08-10T18:35:09.382Z,2.00
2022-08-10T18:37:38.396Z,1.90
2022-08-10T18:40:08.706Z,1.80
2022-08-10T18:42:40.860Z,1.93
2022-08-10T18:45:13.954Z,1.97
2022-08-10T18:47:59.357Z,2.50
2022-08-10T18:50:31.486Z,2.33
2022-08-10T18:53:03.443Z,2.70
2022-08-10T18:55:35.518Z,2.50
2022-08-10T18:58:40.658Z,2.70
2022-08-10T19:01:17.825Z,2.53
2022-08-10T19:04:13.110Z,2.40
2022-08-10T19:07:04.680Z,2.10
2022-08-10T19:09:47.505Z,2.30
2022-08-10T19:12:35.369Z,1.97
2022-08-10T19:15:09.165Z,2.60
2022-08-10T19:18:03.306Z,2.50
2022-08-10T19:20:37.759Z,2.40
2022-08-10T19:23:17.954Z,5.17
2022-08-10T19:26:32.974Z,3.70
2022-08-10T19:28:47.057Z,2.90
2022-08-10T19:31:25.186Z,2.20
2022-08-10T19:34:31.516Z,2.67
2022-08-10T19:37:08.573Z,2.43
2022-08-10T19:39:50.637Z,2.50
2022-08-10T19:42:31.349Z,2.60
2022-08-10T19:45:06.145Z,2.80
2022-08-10T19:47:40.572Z,4.47
2022-08-10T19:50:12.834Z,4.33
2022-08-10T19:52:46.661Z,3.53
2022-08-10T19:55:21.286Z,3.13
2022-08-10T19:57:56.890Z,10.43
2022-08-10T20:00:32.314Z,6.77
2022-08-10T20:03:16.898Z,3.70
2022-08-10T20:06:18.493Z,3.93
2022-08-10T20:08:46.995Z,4.20
2022-08-10T20:11:46.393Z,2.50
2022-08-10T20:14:22.006Z,2.30
2022-08-10T20:16:51.634Z,2.60
2022-08-10T20:19:52.977Z,2.50
2022-08-10T20:22:18.898Z,3.73
2022-08-10T20:25:04.396Z,2.90
2022-08-10T20:28:00.081Z,2.97
2022-08-10T20:30:29.111Z,2.23
2022-08-10T20:33:03.318Z,2.40
2022-08-10T20:35:35.180Z,2.27
2022-08-10T20:38:08.299Z,2.33
2022-08-10T20:40:42.942Z,2.33
2022-08-10T20:43:19.896Z,1.83
2022-08-10T20:46:08.556Z,2.33
2022-08-10T20:48:44.709Z,2.10
2022-08-10T20:51:15.102Z,2.33
2022-08-10T20:53:47.528Z,2.67
2022-08-10T20:56:26.405Z,2.00
2022-08-10T20:59:14.935Z,2.37
2022-08-10T21:02:06.545Z,1.77
2022-08-10T21:04:48.566Z,1.80
2022-08-10T21:08:02.584Z,2.57
2022-08-10T21:10:57.271Z,2.80
2022-08-10T21:13:56.794Z,1.90
2022-08-10T21:16:47.753Z,2.13
2022-08-10T21:19:53.496Z,2.40
2022-08-10T21:22:25.621Z,2.80
2022-08-10T21:25:00.267Z,2.00
2022-08-10T21:27:49.406Z,3.10
2022-08-10T21:30:35.230Z,1.93
2022-08-10T21:33:08.463Z,1.97
2022-08-10T21:35:42.492Z,2.30
2022-08-10T21:38:19.586Z,2.13
2022-08-10T21:41:17.815Z,1.67
2022-08-10T21:44:19.101Z,1.90
2022-08-10T21:47:17.863Z,2.10
2022-08-10T21:50:27.432Z,1.70
2022-08-10T21:53:44.023Z,1.97
2022-08-10T21:56:36.496Z,4.40
2022-08-10T21:59:25.915Z,2.80
2022-08-10T22:02:17.004Z,2.43
2022-08-10T22:05:02.293Z,2.10
2022-08-10T22:07:50.214Z,2.83
2022-08-10T22:10:41.665Z,2.50
2022-08-10T22:13:28.447Z,2.20
2022-08-10T22:16:23.079Z,4.10
2022-08-10T22:19:14.817Z,4.63
2022-08-10T22:22:19.867Z,4.83
2022-08-10T22:25:28.645Z,2.97
2022-08-10T22:28:17.599Z,1.70
2022-08-10T22:31:31.466Z,1.80
2022-08-10T22:34:26.520Z,2.60
2022-08-10T22:37:30.432Z,1.80
2022-08-10T22:42:58.957Z,2.00
2022-08-10T22:45:53.805Z,3.10
2022-08-10T22:48:39.512Z,2.03
2022-08-10T22:51:20.805Z,2.50
2022-08-10T22:54:08.684Z,2.17
2022-08-10T22:56:55.807Z,1.60
2022-08-10T22:59:28.366Z,1.77
2022-08-10T23:02:08.670Z,6.57
2022-08-10T23:04:45.277Z,2.00
2022-08-10T23:07:20.171Z,1.90
2022-08-10T23:09:51.659Z,1.43
2022-08-10T23:12:23.068Z,1.40
2022-08-10T23:15:10.653Z,1.53
2022-08-10T23:18:00.727Z,1.40
2022-08-10T23:20:30.540Z,1.20
2022-08-10T23:23:09.016Z,1.70
2022-08-10T23:25:57.279Z,1.60
2022-08-10T23:28:38.912Z,2.93
2022-08-10T23:31:14.410Z,1.63
2022-08-10T23:33:44.293Z,1.90
2022-08-10T23:36:34.368Z,1.67
2022-08-10T23:39:25.919Z,1.80
2022-08-10T23:41:57.021Z,1.60
2022-08-10T23:44:25.260Z,1.57
2022-08-10T23:46:53.467Z,1.70
2022-08-10T23:49:23.734Z,1.77
2022-08-10T23:51:56.364Z,1.30
2022-08-10T23:54:24.791Z,1.80
2022-08-10T23:57:01.127Z,1.50
2022-08-10T23:59:31.589Z,1.53
